createdAt,value
2019-01-27T00:00:32.518Z,4.90
2019-01-27T00:03:00.451Z,5.00
2019-01-27T00:05:28.447Z,5.00
2019-01-27T00:07:56.387Z,5.00
2019-01-27T00:10:24.353Z,4.90
2019-01-27T00:12:52.238Z,4.90
2019-01-27T00:15:20.422Z,4.90
2019-01-27T00:17:48.403Z,4.80
2019-01-27T00:20:16.469Z,4.90
2019-01-27T00:22:44.454Z,4.90
2019-01-27T00:25:12.467Z,4.90
2019-01-27T00:27:40.546Z,4.90
2019-01-27T00:30:11.955Z,4.90
2019-01-27T00:32:39.850Z,4.90
2019-01-27T00:35:08.045Z,4.90
2019-01-27T00:37:35.935Z,4.90
2019-01-27T00:40:04.623Z,4.90
2019-01-27T00:42:35.101Z,4.80
2019-01-27T00:45:02.858Z,4.80
2019-01-27T00:47:30.936Z,4.70
2019-01-27T00:49:58.936Z,4.80
2019-01-27T00:52:26.857Z,4.70
2019-01-27T00:54:54.901Z,4.80
2019-01-27T00:57:22.927Z,4.80
2019-01-27T00:59:50.945Z,4.80
2019-01-27T01:02:18.917Z,4.80
2019-01-27T01:04:46.895Z,4.80
2019-01-27T01:07:14.807Z,4.80
2019-01-27T01:09:42.744Z,4.80
2019-01-27T01:12:10.645Z,4.80
2019-01-27T01:14:38.528Z,4.90
2019-01-27T01:17:06.535Z,4.90
2019-01-27T01:19:34.470Z,4.90
2019-01-27T01:22:02.429Z,4.80
2019-01-27T01:24:30.373Z,4.90
2019-01-27T01:26:58.263Z,4.80
2019-01-27T01:29:26.328Z,4.80
2019-01-27T01:31:54.280Z,4.80
2019-01-27T01:34:25.426Z,4.90
2019-01-27T01:36:53.799Z,4.90
2019-01-27T01:39:21.831Z,4.90
2019-01-27T01:41:51.180Z,5.00
2019-01-27T01:44:19.182Z,5.00
2019-01-27T01:46:47.147Z,4.90
2019-01-27T01:49:23.482Z,4.90
2019-01-27T01:51:51.944Z,4.90
2019-01-27T01:54:20.220Z,4.80
2019-01-27T01:56:49.930Z,4.90
2019-01-27T01:59:18.047Z,4.80
2019-01-27T02:01:46.156Z,4.80
2019-01-27T02:04:14.454Z,4.80
2019-01-27T02:06:45.291Z,4.80
2019-01-27T02:09:12.973Z,4.80
2019-01-27T02:11:43.112Z,4.70
2019-01-27T02:14:11.118Z,4.70
2019-01-27T02:16:39.111Z,4.80
2019-01-27T02:19:07.073Z,4.70
2019-01-27T02:21:35.106Z,4.80
2019-01-27T02:24:03.191Z,4.70
2019-01-27T02:26:31.086Z,4.70
2019-01-27T02:28:59.135Z,4.70
2019-01-27T02:31:27.143Z,4.70
2019-01-27T02:33:55.273Z,4.70
2019-01-27T02:36:23.249Z,4.70
2019-01-27T02:38:51.155Z,4.70
2019-01-27T02:41:19.137Z,4.70
2019-01-27T02:43:47.183Z,4.70
2019-01-27T02:46:15.216Z,4.70
2019-01-27T02:48:43.102Z,4.70
2019-01-27T02:51:11.010Z,4.60
2019-01-27T02:53:38.886Z,4.70
2019-01-27T02:56:09.926Z,4.60
2019-01-27T02:58:37.899Z,4.70
2019-01-27T03:01:05.874Z,4.70
2019-01-27T03:03:33.810Z,4.70
2019-01-27T03:06:36.077Z,4.70
2019-01-27T03:09:11.222Z,4.60
2019-01-27T03:11:49.165Z,4.60
2019-01-27T03:14:17.769Z,4.60
2019-01-27T03:16:46.008Z,4.60
2019-01-27T03:19:13.924Z,4.70
2019-01-27T03:21:41.798Z,4.60
2019-01-27T03:24:09.715Z,4.60
2019-01-27T03:26:37.686Z,4.50
2019-01-27T03:29:05.659Z,4.60
2019-01-27T03:31:33.735Z,4.50
2019-01-27T03:34:01.693Z,4.60
2019-01-27T03:36:29.638Z,4.60
2019-01-27T03:38:57.641Z,4.50
2019-01-27T03:41:25.677Z,4.50
2019-01-27T03:43:53.635Z,4.60
2019-01-27T03:46:21.674Z,4.60
2019-01-27T03:48:49.677Z,4.60
2019-01-27T03:51:17.586Z,4.70
2019-01-27T03:53:45.554Z,4.70
2019-01-27T03:56:13.499Z,4.60
2019-01-27T03:58:41.457Z,4.60
2019-01-27T04:01:09.322Z,4.60
2019-01-27T04:03:37.208Z,4.60
2019-01-27T04:06:05.201Z,4.60
2019-01-27T04:08:33.117Z,4.50
2019-01-27T04:11:01.049Z,4.50
2019-01-27T04:13:29.072Z,4.60
2019-01-27T04:15:57.115Z,4.50
2019-01-27T04:18:25.102Z,4.40
2019-01-27T04:20:53.112Z,4.50
2019-01-27T04:23:21.109Z,4.40
2019-01-27T04:25:49.077Z,4.40
2019-01-27T04:28:17.030Z,4.30
2019-01-27T04:30:44.998Z,4.40
2019-01-27T04:33:12.956Z,4.40
2019-01-27T04:35:40.914Z,4.40
2019-01-27T04:38:08.972Z,4.40
2019-01-27T04:40:36.838Z,4.30
2019-01-27T04:43:04.748Z,4.40
2019-01-27T04:45:34.647Z,4.40
2019-01-27T04:48:02.761Z,4.40
2019-01-27T04:50:30.723Z,4.30
2019-01-27T04:52:58.716Z,4.30
2019-01-27T04:55:26.621Z,4.40
2019-01-27T04:57:54.498Z,4.30
2019-01-27T05:00:23.594Z,4.30
2019-01-27T05:03:09.952Z,4.30
2019-01-27T05:05:37.939Z,4.30
2019-01-27T05:08:06.011Z,4.30
2019-01-27T05:10:34.015Z,4.30
2019-01-27T05:13:01.875Z,4.20
2019-01-27T05:15:30.550Z,4.30
2019-01-27T05:17:58.435Z,4.30
2019-01-27T05:20:26.308Z,4.30
2019-01-27T05:22:54.323Z,4.30
2019-01-27T05:25:22.454Z,4.30
2019-01-27T05:27:50.456Z,4.30
2019-01-27T05:30:19.156Z,4.40
2019-01-27T05:32:47.686Z,4.40
2019-01-27T05:35:15.674Z,4.40
2019-01-27T05:37:43.606Z,4.40
2019-01-27T05:40:12.091Z,4.40
2019-01-27T05:42:40.133Z,4.30
2019-01-27T05:45:09.088Z,4.30
2019-01-27T05:47:37.003Z,4.30
2019-01-27T05:50:05.538Z,4.30
2019-01-27T05:52:33.418Z,4.30
2019-01-27T05:55:01.330Z,4.50
2019-01-27T05:57:29.187Z,4.50
2019-01-27T05:59:57.207Z,4.50
2019-01-27T06:02:25.103Z,4.50
2019-01-27T06:04:53.025Z,4.50
2019-01-27T06:07:20.918Z,4.50
2019-01-27T06:09:48.845Z,4.60
2019-01-27T06:12:16.763Z,4.60
2019-01-27T06:14:44.689Z,4.60
2019-01-27T06:17:12.587Z,4.60
2019-01-27T06:19:40.504Z,4.60
2019-01-27T06:22:08.439Z,4.60
2019-01-27T06:24:36.413Z,4.60
2019-01-27T06:27:04.324Z,4.60
2019-01-27T06:29:32.231Z,4.60
2019-01-27T06:32:00.187Z,4.60
2019-01-27T06:34:28.695Z,4.50
2019-01-27T06:36:56.600Z,4.50
2019-01-27T06:39:24.517Z,4.50
2019-01-27T06:41:52.480Z,4.60
2019-01-27T06:44:20.462Z,4.60
2019-01-27T06:46:48.517Z,4.70
2019-01-27T06:49:16.567Z,4.70
2019-01-27T06:51:46.878Z,4.80
2019-01-27T06:54:14.812Z,4.80
2019-01-27T06:56:42.723Z,4.80
2019-01-27T06:59:18.218Z,4.70
2019-01-27T07:01:54.480Z,4.70
2019-01-27T07:04:32.956Z,4.80
2019-01-27T07:07:32.222Z,4.80
2019-01-27T07:10:18.190Z,4.80
2019-01-27T07:12:53.962Z,4.90
2019-01-27T07:15:53.240Z,4.90
2019-01-27T07:18:36.659Z,4.90
2019-01-27T07:21:11.180Z,4.90
2019-01-27T07:23:50.615Z,4.90
2019-01-27T07:26:46.450Z,4.80
2019-01-27T07:29:42.431Z,4.90
2019-01-27T07:32:38.783Z,4.80
2019-01-27T07:35:18.790Z,4.90
2019-01-27T07:37:52.581Z,4.90
2019-01-27T07:40:54.814Z,4.90
2019-01-27T07:43:29.900Z,4.90
2019-01-27T07:46:03.461Z,4.90
2019-01-27T07:48:47.111Z,5.00
2019-01-27T07:51:39.963Z,4.90
2019-01-27T07:54:19.430Z,5.00
2019-01-27T07:57:05.468Z,5.10
2019-01-27T08:00:01.971Z,5.10
2019-01-27T08:03:04.218Z,5.10
2019-01-27T08:05:43.936Z,5.10
2019-01-27T08:08:36.879Z,5.20
2019-01-27T08:11:24.120Z,5.10
2019-01-27T08:14:26.343Z,5.10
2019-01-27T08:17:12.129Z,5.10
2019-01-27T08:19:58.239Z,5.00
2019-01-27T08:22:51.470Z,5.00
2019-01-27T08:25:40.451Z,4.90
2019-01-27T08:31:42.100Z,5.00
2019-01-27T08:57:24.300Z,5.70
2019-01-27T08:59:52.178Z,5.60
2019-01-27T09:02:31.098Z,5.50
2019-01-27T09:05:03.790Z,5.50
2019-01-27T09:07:50.888Z,5.40
2019-01-27T09:10:36.381Z,5.30
2019-01-27T09:13:26.707Z,5.40
2019-01-27T09:16:02.259Z,5.40
2019-01-27T09:18:43.130Z,5.60
2019-01-27T09:21:27.604Z,5.70
2019-01-27T09:24:05.502Z,5.90
2019-01-27T09:26:55.339Z,6.20
2019-01-27T09:29:32.481Z,6.50
2019-01-27T09:32:18.688Z,6.80
2019-01-27T09:35:09.006Z,7.10
2019-01-27T09:38:00.287Z,7.20
2019-01-27T09:40:40.323Z,7.30
2019-01-27T09:43:29.003Z,7.30
2019-01-27T09:46:22.984Z,7.10
2019-01-27T09:49:01.076Z,7.10
2019-01-27T09:52:02.482Z,6.90
2019-01-27T09:54:41.756Z,6.80
2019-01-27T09:57:32.111Z,6.80
2019-01-27T10:00:05.768Z,6.70
2019-01-27T10:02:44.040Z,6.80
2019-01-27T10:05:17.882Z,6.70
2019-01-27T10:07:59.923Z,6.60
2019-01-27T10:10:50.073Z,6.50
2019-01-27T10:13:37.644Z,6.50
2019-01-27T10:16:15.444Z,6.60
2019-01-27T10:19:09.404Z,6.60
2019-01-27T10:21:50.628Z,6.50
2019-01-27T10:24:40.021Z,6.60
2019-01-27T10:27:26.082Z,6.50
2019-01-27T10:30:04.907Z,6.60
2019-01-27T10:33:04.117Z,6.80
2019-01-27T10:35:42.924Z,6.90
2019-01-27T10:38:30.578Z,7.10
2019-01-27T10:41:10.149Z,7.10
2019-01-27T10:44:12.494Z,7.20
2019-01-27T10:47:05.529Z,7.10
2019-01-27T10:49:51.632Z,7.20
2019-01-27T10:52:27.294Z,7.20
2019-01-27T10:55:14.477Z,7.20
2019-01-27T10:58:03.359Z,7.20
2019-01-27T11:00:56.580Z,7.10
2019-01-27T11:03:46.670Z,7.10
2019-01-27T11:06:27.269Z,7.10
2019-01-27T11:09:08.397Z,7.00
2019-01-27T11:11:54.459Z,6.90
2019-01-27T11:14:47.667Z,6.90
2019-01-27T11:17:34.743Z,6.80
2019-01-27T11:20:20.727Z,6.70
2019-01-27T11:23:14.978Z,6.70
2019-01-27T11:26:02.073Z,6.70
2019-01-27T11:28:57.813Z,6.60
2019-01-27T11:31:37.604Z,6.60
2019-01-27T11:34:12.888Z,6.60
2019-01-27T11:37:02.900Z,6.50
2019-01-27T11:39:47.323Z,6.50
2019-01-27T11:42:37.510Z,6.40
2019-01-27T11:45:13.539Z,6.40
2019-01-27T11:48:06.505Z,6.50
2019-01-27T11:50:42.391Z,6.60
2019-01-27T11:53:10.414Z,6.80
2019-01-27T11:55:38.526Z,7.00
2019-01-27T11:58:06.620Z,7.00
2019-01-27T12:00:39.537Z,7.00
2019-01-27T12:03:09.254Z,6.90
2019-01-27T12:05:37.223Z,6.90
2019-01-27T12:08:05.300Z,6.80
2019-01-27T12:10:33.365Z,6.70
2019-01-27T12:13:01.277Z,6.70
2019-01-27T12:15:29.312Z,6.60
2019-01-27T12:17:57.394Z,6.70
2019-01-27T12:20:25.497Z,6.70
2019-01-27T12:22:53.516Z,6.60
2019-01-27T12:25:21.434Z,6.70
2019-01-27T12:27:49.302Z,6.60
2019-01-27T12:30:17.812Z,6.80
2019-01-27T12:32:45.883Z,6.80
2019-01-27T12:35:13.900Z,6.90
2019-01-27T12:37:41.840Z,6.70
2019-01-27T12:40:11.679Z,6.60
2019-01-27T12:42:39.597Z,6.60
2019-01-27T12:45:08.509Z,6.60
2019-01-27T12:47:36.417Z,6.60
2019-01-27T12:50:04.964Z,6.60
2019-01-27T12:52:32.881Z,6.80
2019-01-27T12:55:01.100Z,6.80
2019-01-27T12:57:28.999Z,6.90
2019-01-27T12:59:56.965Z,6.90
2019-01-27T13:02:24.884Z,6.80
2019-01-27T13:04:52.995Z,6.90
2019-01-27T13:07:20.984Z,6.80
2019-01-27T13:09:48.996Z,6.90
2019-01-27T13:12:16.939Z,6.90
2019-01-27T13:14:45.050Z,6.90
2019-01-27T13:17:13.095Z,6.90
2019-01-27T13:19:41.121Z,6.80
2019-01-27T13:22:12.334Z,6.90
2019-01-27T13:24:38.843Z,6.80
2019-01-27T13:27:06.929Z,6.80
2019-01-27T13:29:34.918Z,6.80
2019-01-27T13:32:05.770Z,6.90
2019-01-27T13:34:33.655Z,6.80
2019-01-27T13:37:01.787Z,6.90
2019-01-27T13:39:29.708Z,6.90
2019-01-27T13:41:57.795Z,7.00
2019-01-27T13:44:26.025Z,7.10
2019-01-27T13:46:54.060Z,7.10
2019-01-27T13:49:21.963Z,7.20
2019-01-27T13:51:49.906Z,7.20
2019-01-27T13:54:25.623Z,7.30
2019-01-27T13:56:53.730Z,7.30
2019-01-27T13:59:24.529Z,7.40
2019-01-27T14:01:52.602Z,7.40
2019-01-27T14:04:20.541Z,7.60
2019-01-27T14:06:48.480Z,7.60
2019-01-27T14:09:16.533Z,7.50
2019-01-27T14:11:44.563Z,7.40
2019-01-27T14:14:12.432Z,7.50
2019-01-27T14:16:40.347Z,7.40
2019-01-27T14:19:08.372Z,7.40
2019-01-27T14:21:36.334Z,7.40
2019-01-27T14:24:05.075Z,7.40
2019-01-27T14:26:33.036Z,7.40
2019-01-27T14:29:00.928Z,7.40
2019-01-27T14:31:28.829Z,7.40
2019-01-27T14:33:56.754Z,7.40
2019-01-27T14:36:24.865Z,7.40
2019-01-27T14:38:52.823Z,7.30
2019-01-27T14:41:20.849Z,7.20
2019-01-27T14:43:48.734Z,7.20
2019-01-27T14:46:16.665Z,7.20
2019-01-27T14:48:44.741Z,7.20
2019-01-27T14:51:12.779Z,7.20
2019-01-27T14:53:40.735Z,7.20
2019-01-27T14:56:08.836Z,7.20
2019-01-27T14:58:36.773Z,7.20
2019-01-27T15:01:04.887Z,7.20
2019-01-27T15:03:32.767Z,7.20
2019-01-27T15:06:00.769Z,7.10
2019-01-27T15:08:28.744Z,7.10
2019-01-27T15:10:56.813Z,7.00
2019-01-27T15:13:24.750Z,7.00
2019-01-27T15:15:52.693Z,7.00
2019-01-27T15:18:20.706Z,7.00
2019-01-27T15:20:50.271Z,7.00
2019-01-27T15:23:18.268Z,7.00
2019-01-27T15:25:46.777Z,6.90
2019-01-27T15:28:14.712Z,6.90
2019-01-27T15:30:42.827Z,7.00
2019-01-27T15:33:10.829Z,7.00
2019-01-27T15:35:38.838Z,7.00
2019-01-27T15:38:06.911Z,6.90
2019-01-27T15:40:34.944Z,6.90
2019-01-27T15:43:02.974Z,6.90
2019-01-27T15:45:30.978Z,6.90
2019-01-27T15:47:59.061Z,6.90
2019-01-27T15:50:28.247Z,6.80
2019-01-27T15:52:56.230Z,6.90
2019-01-27T15:55:24.375Z,6.80
2019-01-27T15:57:52.439Z,6.80
2019-01-27T16:00:22.161Z,6.80
2019-01-27T16:02:50.118Z,6.80
2019-01-27T16:05:18.850Z,6.80
2019-01-27T16:07:47.219Z,6.90
2019-01-27T16:10:16.163Z,6.80
2019-01-27T16:12:44.202Z,6.80
2019-01-27T16:15:13.315Z,6.70
2019-01-27T16:17:41.317Z,6.70
2019-01-27T16:20:11.216Z,6.70
2019-01-27T16:22:39.214Z,6.80
2019-01-27T16:25:07.994Z,6.80
2019-01-27T16:27:35.941Z,6.70
2019-01-27T16:30:27.510Z,6.80
2019-01-27T16:33:05.690Z,6.70
2019-01-27T16:35:33.579Z,6.70
2019-01-27T16:38:01.703Z,6.70
2019-01-27T16:40:29.673Z,6.70
2019-01-27T16:42:57.616Z,6.70
2019-01-27T16:45:25.652Z,6.70
2019-01-27T16:47:53.709Z,6.70
2019-01-27T16:50:21.831Z,6.70
2019-01-27T16:52:49.866Z,6.70
2019-01-27T16:55:17.842Z,6.70
2019-01-27T16:57:45.801Z,6.80
2019-01-27T17:00:15.894Z,6.70
2019-01-27T17:02:43.917Z,6.80
2019-01-27T17:05:12.550Z,6.80
2019-01-27T17:07:40.603Z,6.70
2019-01-27T17:10:09.452Z,6.70
2019-01-27T17:12:37.477Z,6.70
2019-01-27T17:15:05.809Z,6.60
2019-01-27T17:17:34.011Z,6.60
2019-01-27T17:20:02.635Z,6.60
2019-01-27T17:22:31.119Z,6.60
2019-01-27T17:24:59.004Z,6.50
2019-01-27T17:27:27.028Z,6.40
2019-01-27T17:29:55.016Z,6.40
2019-01-27T17:32:22.918Z,6.30
2019-01-27T17:34:50.925Z,6.30
2019-01-27T17:37:19.128Z,6.40
2019-01-27T17:39:47.553Z,6.30
2019-01-27T17:42:15.555Z,6.40
2019-01-27T17:44:43.546Z,6.30
2019-01-27T17:47:29.359Z,6.30
2019-01-27T17:50:01.102Z,6.20
2019-01-27T17:52:37.179Z,6.20
2019-01-27T17:55:06.477Z,6.20
2019-01-27T17:57:52.293Z,6.20
2019-01-27T18:00:39.379Z,6.20
2019-01-27T18:03:13.744Z,6.30
2019-01-27T18:05:58.471Z,6.30
2019-01-27T18:08:39.599Z,6.30
2019-01-27T18:11:24.524Z,6.30
2019-01-27T18:13:58.144Z,6.30
2019-01-27T18:16:26.104Z,6.30
2019-01-27T18:18:54.239Z,6.30
2019-01-27T18:21:22.157Z,6.30
2019-01-27T18:23:50.074Z,6.20
2019-01-27T18:26:18.314Z,6.30
2019-01-27T18:28:46.244Z,6.30
2019-01-27T18:31:14.416Z,6.30
2019-01-27T18:33:44.874Z,6.30
2019-01-27T18:36:12.960Z,6.30
2019-01-27T18:38:41.130Z,6.30
2019-01-27T18:41:09.391Z,6.30
2019-01-27T18:43:37.481Z,6.30
2019-01-27T18:46:05.562Z,6.30
2019-01-27T18:48:33.496Z,6.30
2019-01-27T18:51:01.522Z,6.30
2019-01-27T18:53:57.822Z,6.30
2019-01-27T18:56:34.618Z,6.40
2019-01-27T18:59:09.931Z,6.30
2019-01-27T19:02:01.943Z,6.30
2019-01-27T19:04:51.877Z,6.30
2019-01-27T19:07:42.134Z,6.30
2019-01-27T19:10:17.244Z,6.40
2019-01-27T19:13:03.130Z,6.50
2019-01-27T19:15:56.887Z,6.60
2019-01-27T19:18:50.264Z,6.50
2019-01-27T19:21:52.770Z,6.50
2019-01-27T19:24:45.976Z,6.50
2019-01-27T19:27:31.927Z,6.50
2019-01-27T19:30:37.391Z,6.50
2019-01-27T19:33:20.779Z,6.50
2019-01-27T19:36:16.861Z,6.40
2019-01-27T19:39:19.115Z,6.40
2019-01-27T19:41:59.916Z,6.40
2019-01-27T19:44:54.373Z,6.50
2019-01-27T19:47:37.950Z,6.50
2019-01-27T19:50:25.537Z,6.50
2019-01-27T19:53:11.508Z,6.40
2019-01-27T19:56:01.901Z,6.40
2019-01-27T19:58:44.979Z,6.40
2019-01-27T20:01:26.004Z,6.40
2019-01-27T20:04:12.414Z,6.50
2019-01-27T20:06:58.101Z,6.50
2019-01-27T20:09:47.991Z,6.50
2019-01-27T20:12:38.048Z,6.50
2019-01-27T20:15:25.262Z,6.50
2019-01-27T20:18:18.473Z,6.50
2019-01-27T20:21:08.080Z,6.50
2019-01-27T20:23:56.488Z,6.50
2019-01-27T20:26:49.518Z,6.40
2019-01-27T20:29:32.210Z,6.40
2019-01-27T20:32:20.773Z,6.30
2019-01-27T20:34:59.882Z,6.30
2019-01-27T20:37:39.275Z,6.20
2019-01-27T20:40:29.798Z,6.30
2019-01-27T20:43:16.938Z,6.20
2019-01-27T20:46:10.062Z,6.30
2019-01-27T20:48:57.306Z,6.30
2019-01-27T20:51:36.923Z,6.30
2019-01-27T20:54:13.354Z,6.30
2019-01-27T20:57:07.807Z,6.30
2019-01-27T20:59:58.311Z,6.30
2019-01-27T21:02:46.047Z,6.40
2019-01-27T21:05:20.355Z,6.30
2019-01-27T21:08:06.473Z,6.40
2019-01-27T21:10:44.033Z,6.30
2019-01-27T21:13:31.243Z,6.30
2019-01-27T21:16:09.248Z,6.10
2019-01-27T21:18:48.181Z,6.00
2019-01-27T21:21:16.314Z,6.10
2019-01-27T21:23:44.331Z,6.10
2019-01-27T21:26:13.511Z,6.10
2019-01-27T21:28:41.446Z,6.10
2019-01-27T21:31:09.434Z,6.00
2019-01-27T21:33:39.826Z,6.00
2019-01-27T21:36:07.937Z,6.10
2019-01-27T21:38:35.898Z,6.00
2019-01-27T21:41:04.168Z,6.10
2019-01-27T21:43:32.171Z,6.10
2019-01-27T21:46:00.246Z,6.00
2019-01-27T21:48:28.184Z,6.10
2019-01-27T21:50:56.095Z,6.10
2019-01-27T21:53:24.110Z,6.10
2019-01-27T21:55:52.991Z,6.10
2019-01-27T21:58:21.193Z,6.20
2019-01-27T22:00:49.352Z,6.20
2019-01-27T22:03:17.259Z,6.10
2019-01-27T22:05:45.450Z,6.10
2019-01-27T22:08:13.577Z,6.10
2019-01-27T22:10:41.734Z,6.10
2019-01-27T22:13:09.827Z,6.20
2019-01-27T22:15:37.810Z,6.20
2019-01-27T22:18:05.832Z,6.20
2019-01-27T22:20:33.891Z,6.10
2019-01-27T22:23:06.189Z,6.10
2019-01-27T22:25:34.482Z,6.00
2019-01-27T22:28:02.719Z,5.90
2019-01-27T22:30:30.873Z,5.90
2019-01-27T22:32:58.867Z,5.90
2019-01-27T22:35:26.949Z,5.90
2019-01-27T22:37:54.966Z,5.90
2019-01-27T22:40:22.894Z,5.90
2019-01-27T22:42:50.805Z,5.90
2019-01-27T22:45:18.835Z,5.90
2019-01-27T22:47:46.759Z,5.90
2019-01-27T22:50:15.786Z,5.80
2019-01-27T22:52:43.720Z,5.90
2019-01-27T22:55:11.767Z,5.80
2019-01-27T22:57:39.733Z,5.80
2019-01-27T23:00:12.691Z,5.70
2019-01-27T23:02:40.695Z,5.70
2019-01-27T23:05:09.784Z,5.70
2019-01-27T23:07:38.020Z,5.70
2019-01-27T23:10:06.026Z,5.70
2019-01-27T23:12:36.630Z,5.80
2019-01-27T23:15:05.072Z,5.80
2019-01-27T23:17:33.332Z,5.90
2019-01-27T23:20:01.383Z,5.90
2019-01-27T23:22:29.346Z,6.00
2019-01-27T23:24:57.970Z,5.90
2019-01-27T23:27:25.869Z,5.90
2019-01-27T23:29:53.832Z,5.90
2019-01-27T23:32:21.781Z,5.90
2019-01-27T23:34:49.756Z,5.90
2019-01-27T23:37:17.663Z,5.80
2019-01-27T23:39:45.653Z,5.80
2019-01-27T23:42:13.618Z,5.80
2019-01-27T23:44:46.233Z,5.80
2019-01-27T23:47:14.316Z,5.90
2019-01-27T23:49:44.085Z,5.90
2019-01-27T23:52:14.254Z,5.90
2019-01-27T23:54:42.260Z,6.00
2019-01-27T23:57:13.370Z,6.00
2019-01-27T23:59:41.753Z,6.00
